Extreme weather reports worldwide

Highest temperatures

Station
 
Location
 
Name
 
Wind
Knots
Gust
Knots
Vis
SM
Temp/Dew
C
Baro
inHg
METAR
 
GET YGEL Geraldton, AU Geraldton Airport 12 6.21 40/8 29.68 YGEL 290500Z AUTO 25012KT 9999 // NCD 40/08 Q1005 RF00.0/000.0
LEA YPLM Exmouth, AU Learmonth Airport 13 6.21 38/15 29.70 YPLM 290500Z AUTO 25013KT 9999 // NCD 38/15 Q1006 RF00.0/000.0
YPEA Bullsbrook, AU RAAF Base Pearce 11 6.21 36/4 29.76 YPEA 290500Z 02011KT CAVOK 36/04 Q1008
ISA YBMA Mount Isa, AU Mount Isa Airport 11 6.21 35/2 29.70 YBMA 290500Z AUTO 16011KT 9999 // NCD 35/02 Q1006 RF00.0/000.0
DCN YCIN AU RAAF Base Curtin 3 6.21 35/23 29.65 YCIN 290500Z AUTO 13003KT 9999 // BKN048 BKN055 35/23 Q1004

Station
 
Location
 
Name
 
Wind
Knots
Gust
Knots
Vis
SM
Temp/Dew
C
Baro
inHg
METAR
 
JAD YPJT Perth, AU Perth Jandakot Airport 6 6.21 35/8 29.79 YPJT 290500Z AUTO 06006KT 010V130 9999 // NCD 35/08 Q1009 RF00.0/000.0
PER YPPH Perth, AU Perth International Airport 7 6.21 35/4 29.79 YPPH 290500Z 06007KT 010V090 CAVOK 35/04 Q1009
CRK RPLC Angeles/Mabalacat, PH Diosdado Macapagal International Airport 4 6.21 34/24 29.88 RPLC 290500Z 09004KT 9999 FEW020 BKN300 34/24 Q1012 NOSIG RMK A2988
MNL RPLL Pasay / ParaƱaque, Metro Manila, PH Ninoy Aquino International Airport 11 6.21 34/24 29.79 RPLL 290500Z 11011KT 070V150 9999 FEW025 SCT100 34/24 Q1009 NOSIG RMK A2980
SNO VTUI TH Sakon Nakhon Airport 3 6.21 34/24 29.85 VTUI 290500Z VRB03KT 9999 SCT025 34/24 Q1011 NOSIG
BME YBRM Broome, AU Broome International Airport 9 6.21 34/24 29.68 YBRM 290500Z AUTO 27009KT 9999 // NCD 34/24 Q1005 RF00.0/000.0
KNX YPKU Kununurra, AU Kununurra Airport 7 6.21 34/24 29.62 YPKU 290500Z AUTO 19007KT 140V210 9999 // SCT045 BKN056 34/24 Q1003
KTR YPTN AU Tindal Airport 12 6.21 34/21 29.62 YPTN 290500Z AUTO 17012KT 9999 // SCT051 34/21 Q1003 RF00.0/000.2
GES RPMR General Santos, PH General Santos International Airport 8 6.21 33/22 29.73 RPMR 290500Z 05008KT 020V080 9999 FEW018 33/22 Q1007 RMK A2974 CB SW
PKZ VLPS Pakse, LA Pakse International Airport 2 6.21 33/22 29.85 VLPS 290500Z 18002KT 9999 SCT023 33/22 Q1011 NOSIG
PHY VTPB TH Phetchabun Airport 3 6.21 33/25 29.85 VTPB 290500Z 22003KT 160V300 9999 FEW030 33/25 Q1011 NOSIG
TST VTST TH Trang Airport 5 6.21 33/23 29.79 VTST 290500Z 06005KT 010V120 9999 FEW030 33/23 Q1009 NOSIG
KKC VTUK Khon Kaen, TH Khon Kaen Airport 4 6.21 33/23 29.85 VTUK 290500Z 03004KT 330V090 9999 BKN030 33/23 Q1011 NOSIG
ROI VTUV TH Roi Et Airport 5 6.21 33/23 29.82 VTUV 290500Z 09005KT 040V160 9999 BKN035 33/23 Q1010 NOSIG
SGN VVTS Ho Chi Minh City, VN Tan Son Nhat International Airport 4 6.21 33/25 29.82 VVTS 290500Z VRB04KT 9999 SCT017 33/25 Q1010 NOSIG
AMQ WAPP Ambon, ID Pattimura Airport, Ambon 8 6.21 33/23 29.68 WAPP 290500Z 33008KT 280V360 9999 SCT018 33/23 Q1005 NOSIG
BKI WBKK Kota Kinabalu, MY Kota Kinabalu International Airport 4 6.21 33/26 29.76 WBKK 290500Z VRB04KT 9999 FEW014 FEW016CB 33/26 Q1008 NOSIG
BWN WBSB Bandar Seri Begawan, BN Brunei International Airport 5 6.21 33/27 29.76 WBSB 290500Z 36005KT 9999 FEW015 FEW016CB BKN300 33/27 Q1008 NOSIG
IRJ SANL La Rioja, AR Capitan V A Almonacid Airport 12 6.21 32/11 29.73 SANL 290430Z 18012KT 9999 TS FEW045 SCT100CB 32/11 Q1007
TSA RCSS Taipei City, TW Taipei Songshan Airport 8 6.21 32/22 29.88 RCSS 290500Z 24008KT 9999 FEW028 BKN040 32/22 Q1012 NOSIG RMK 27006KT/R10 A2989
SFS RPLB Olongapo City, PH Subic Bay International Airport 12 6.21 32/24 29.82 RPLB 290500Z 006012KT 010V100 9999 SCT020 32/24 Q1010 NOSIG RMK A2983
DVO RPMD Davao City, PH Francisco Bangoy International Airport 8 6.21 32/25 29.73 RPMD 290500Z 03008KT 310V080 9999 SCT016 BKN260 32/25 Q1007 RMK A2974
ZAM RPMZ Zamboanga City, PH Zamboanga International Airport 9 6.21 32/25 29.73 RPMZ 290500Z 09009KT 9999 FEW017 SCT300 32/25 Q1007 RMK A2974
PPS RPVP Puerto Princesa City, PH Puerto Princesa Airport 12 6.21 32/26 29.76 RPVP 290500Z 09012KT 9999 FEW019 32/26 Q1008 RMK A2977
ZVK VLSK LA Savannakhet Airport 4 4.97 32/20 29.85 VLSK 290500Z 27004KT 8000 SCT020 BKN100 32/20 Q1011 NOSIG
DMK VTBD Bangkok, TH Don Mueang International Airport 4 6.21 32/25 29.82 VTBD 290500Z VRB04KT 9999 SCT030 32/25 Q1010 NOSIG
BKK VTBS Bangkok, TH Suvarnabhumi Airport 4 6.21 32/23 29.82 VTBS 290500Z 02004KT 290V060 9999 FEW020 SCT035 32/23 Q1010 NOSIG
LPT VTCL TH Lampang Airport 2 6.21 32/23 29.88 VTCL 290500Z VRB02KT 9999 FEW025 32/23 Q1012 NOSIG
MAQ VTPM TH Mae Sot Airport 3 6.21 32/25 29.85 VTPM 290500Z VRB03KT 9999 FEW020 32/25 Q1011 NOSIG
PHS VTPP TH Phitsanulok Airport 3 6.21 32/24 29.82 VTPP 290500Z 27003KT 220V360 9999 SCT030 32/24 Q1010 NOSIG
CJM VTSE TH Chumphon Airport 8 6.21 32/26 29.82 VTSE 290500Z 08008KT 340V120 9999 FEW020 32/26 Q1010 NOSIG
NST VTSF Nakhon Si Thammarat, TH Nakhon Si Thammarat Airport 7 6.21 32/26 29.82 VTSF 290500Z 07007KT 030V110 9999 SCT018 32/26 Q1010 NOSIG
HDY VTSS Hat Yai, TH Hat Yai International Airport 8 6.21 32/25 29.79 VTSS 290500Z 06008KT 9999 FEW020 32/25 Q1009 NOSIG
BFV VTUO TH Buri Ram Airport 3 6.21 32/24 29.85 VTUO 290500Z 36003KT 290V050 9999 FEW025TCU BKN035 32/24 Q1011 NOSIG
NAK VTUQ TH Nakhon Ratchasima Airport 4 6.21 32/24 29.85 VTUQ 290500Z VRB04KT 9999 BKN035 32/24 Q1011 NOSIG
UBP VTUU Ubon Ratchathani, TH Ubon Ratchathani Airport 4 6.21 32/24 29.85 VTUU 290500Z 28004KT 230V310 9999 BKN040 32/24 Q1011 NOSIG
KOP VTUW TH Nakhon Phanom Airport 1 6.21 32/22 29.85 VTUW 290500Z VRB01KT 9999 BKN035 32/22 Q1011 NOSIG
WAHS 8 4.97 32/24 29.73 WAHS 290500Z 36008KT 8000 FEW014 32/24 Q1007
SUB WARR Surabaya, ID Juanda International Airport 3 6.21 32/27 29.73 WARR 290500Z VRB03KT 9999 FEW020 32/27 Q1007 NOSIG
SBW WBGS Sibu, MY Sibu Airport 3 6.21 32/24 29.76 WBGS 290500Z VRB03KT 9999 SCT018 32/24 Q1008
TWU WBKW Tawau, MY Tawau Airport 4 6.21 32/26 29.73 WBKW 290500Z VRB04KT 9999 FEW017 32/26 Q1007
CGK WIII Jakarta, ID Soekarno-Hatta International Airport 10 6.21 32/25 29.76 WIII 290500Z 02010KT 9999 FEW022 32/25 Q1008 NOSIG
PNK WIOO Pontianak-Borneo Island, ID Supadio Airport 4 6.21 32/24 29.76 WIOO 290500Z 34004KT 9999 BKN012 32/24 Q1008 NOSIG
PLM WIPP Palembang-Sumatra Island, ID Sultan Mahmud Badaruddin II Airport 2 6.21 32/24 29.76 WIPP 290500Z 25002KT 9999 BKN010 32/24 Q1008 NOSIG
MEP WMAU Mersing, MY Mersing Airport 7 6.21 32/25 29.79 WMAU 290500Z VRB07KT 9999 SCT020 32/25 Q1009